sensor_id;sensor_type;location;lat;lon;timestamp;pressure;altitude;pressure_sealevel;temperature;humidity
64066;BME280;50318;54.760;9.408;2023-01-24T07:48:54;103726.47;;;6.36;60.99
64066;BME280;50318;54.760;9.408;2023-01-24T18:41:56;103537.63;;;5.52;61.87
64066;BME280;50318;54.760;9.408;2023-01-24T18:44:23;103522.53;;;5.42;62.05
64066;BME280;50318;54.760;9.408;2023-01-24T18:46:49;103537.97;;;5.50;62.11
64066;BME280;50318;54.760;9.408;2023-01-24T18:49:21;103547.97;;;5.46;61.60
64066;BME280;50318;54.760;9.408;2023-01-24T18:51:55;103549.56;;;5.47;62.15
64066;BME280;50318;54.760;9.408;2023-01-24T18:54:24;103518.09;;;5.22;61.66
64066;BME280;50318;54.760;9.408;2023-01-24T18:56:53;103534.13;;;5.39;61.67
64066;BME280;50318;54.760;9.408;2023-01-24T18:59:19;103566.97;;;5.59;61.91
64066;BME280;50318;54.760;9.408;2023-01-24T19:01:46;103515.56;;;5.29;61.68
64066;BME280;50318;54.760;9.408;2023-01-24T19:04:13;103539.34;;;5.44;62.22
64066;BME280;50318;54.760;9.408;2023-01-24T19:06:40;103530.88;;;5.34;61.84
64066;BME280;50318;54.760;9.408;2023-01-24T19:09:07;103535.97;;;5.35;61.41
64066;BME280;50318;54.760;9.408;2023-01-24T19:11:36;103567.13;;;5.50;61.52
64066;BME280;50318;54.760;9.408;2023-01-24T19:14:07;103543.44;;;5.38;61.54
64066;BME280;50318;54.760;9.408;2023-01-24T19:16:37;103566.09;;;5.42;62.14
64066;BME280;50318;54.760;9.408;2023-01-24T19:19:10;103510.16;;;5.17;61.72
64066;BME280;50318;54.760;9.408;2023-01-24T19:21:36;103553.06;;;5.48;61.58
64066;BME280;50318;54.760;9.408;2023-01-24T19:24:06;103552.72;;;5.49;61.60
64066;BME280;50318;54.760;9.408;2023-01-24T19:26:38;103505.84;;;5.16;61.97
64066;BME280;50318;54.760;9.408;2023-01-24T19:29:05;103536.16;;;5.42;61.72
64066;BME280;50318;54.760;9.408;2023-01-24T19:31:37;103537.28;;;5.41;61.61
64066;BME280;50318;54.760;9.408;2023-01-24T19:34:08;103525.53;;;5.37;61.82
64066;BME280;50318;54.760;9.408;2023-01-24T19:36:34;103547.97;;;5.46;61.94
64066;BME280;50318;54.760;9.408;2023-01-24T19:39:00;103529.69;;;5.47;61.93
64066;BME280;50318;54.760;9.408;2023-01-24T19:41:29;103545.00;;;5.51;61.39
64066;BME280;50318;54.760;9.408;2023-01-24T19:43:58;103523.50;;;5.34;62.18
64066;BME280;50318;54.760;9.408;2023-01-24T19:46:31;103520.31;;;5.32;61.58
64066;BME280;50318;54.760;9.408;2023-01-24T19:48:58;103528.47;;;5.44;61.70
64066;BME280;50318;54.760;9.408;2023-01-24T19:51:27;103526.06;;;5.43;61.59
64066;BME280;50318;54.760;9.408;2023-01-24T19:53:54;103536.28;;;5.46;61.49
64066;BME280;50318;54.760;9.408;2023-01-24T19:56:21;103548.59;;;5.55;61.24
64066;BME280;50318;54.760;9.408;2023-01-24T19:59:05;103546.38;;;5.45;61.62
64066;BME280;50318;54.760;9.408;2023-01-24T20:01:31;103499.84;;;5.22;61.19
64066;BME280;50318;54.760;9.408;2023-01-24T20:03:58;103562.56;;;5.54;61.43
64066;BME280;50318;54.760;9.408;2023-01-24T20:06:25;103510.38;;;5.24;62.03
64066;BME280;50318;54.760;9.408;2023-01-24T20:08:55;103497.22;;;5.14;61.53
64066;BME280;50318;54.760;9.408;2023-01-24T20:11:25;103528.59;;;5.36;61.98
64066;BME280;50318;54.760;9.408;2023-01-24T20:13:55;103539.09;;;5.49;61.80
64066;BME280;50318;54.760;9.408;2023-01-24T20:16:25;103520.28;;;5.44;61.93
64066;BME280;50318;54.760;9.408;2023-01-24T20:18:56;103547.06;;;5.42;61.95
64066;BME280;50318;54.760;9.408;2023-01-24T20:21:29;103493.72;;;5.13;61.80
64066;BME280;50318;54.760;9.408;2023-01-24T20:24:02;103518.97;;;5.26;61.31
64066;BME280;50318;54.760;9.408;2023-01-24T20:26:30;103504.25;;;5.15;61.35
64066;BME280;50318;54.760;9.408;2023-01-24T20:28:59;103520.13;;;5.25;61.99
64066;BME280;50318;54.760;9.408;2023-01-24T20:31:33;103528.72;;;5.27;61.85
64066;BME280;50318;54.760;9.408;2023-01-24T20:34:02;103539.03;;;5.34;61.88
64066;BME280;50318;54.760;9.408;2023-01-24T20:36:28;103526.00;;;5.27;61.91
64066;BME280;50318;54.760;9.408;2023-01-24T20:38:55;103492.88;;;4.97;62.13
64066;BME280;50318;54.760;9.408;2023-01-24T20:41:22;103521.81;;;5.17;61.96
64066;BME280;50318;54.760;9.408;2023-01-24T20:43:56;103519.44;;;5.16;62.27
64066;BME280;50318;54.760;9.408;2023-01-24T20:46:28;103524.19;;;5.19;62.45
64066;BME280;50318;54.760;9.408;2023-01-24T20:48:56;103560.66;;;5.42;62.10
64066;BME280;50318;54.760;9.408;2023-01-24T20:51:30;103547.19;;;5.34;62.13
64066;BME280;50318;54.760;9.408;2023-01-24T21:00:04;103553.97;;;5.52;61.52
64066;BME280;50318;54.760;9.408;2023-01-24T21:02:36;103520.31;;;5.32;61.69
64066;BME280;50318;54.760;9.408;2023-01-24T21:05:13;103527.34;;;5.33;61.39
64066;BME280;50318;54.760;9.408;2023-01-24T21:07:40;103506.72;;;5.20;61.89
64066;BME280;50318;54.760;9.408;2023-01-24T21:10:07;103485.19;;;5.15;61.66
64066;BME280;50318;54.760;9.408;2023-01-24T21:12:40;103529.34;;;5.48;61.71
64066;BME280;50318;54.760;9.408;2023-01-24T21:15:10;103486.44;;;5.17;61.18
64066;BME280;50318;54.760;9.408;2023-01-24T21:17:36;103538.44;;;5.40;61.63
64066;BME280;50318;54.760;9.408;2023-01-24T21:20:08;103514.09;;;5.32;61.36
64066;BME280;50318;54.760;9.408;2023-01-24T21:22:35;103517.84;;;5.27;62.01
64066;BME280;50318;54.760;9.408;2023-01-24T21:25:08;103511.59;;;5.27;61.86
64066;BME280;50318;54.760;9.408;2023-01-24T21:27:57;103510.03;;;5.26;61.38
64066;BME280;50318;54.760;9.408;2023-01-24T21:30:30;103501.28;;;5.20;61.90
64066;BME280;50318;54.760;9.408;2023-01-24T21:32:57;103510.38;;;5.24;61.62
64066;BME280;50318;54.760;9.408;2023-01-24T21:35:39;103467.44;;;5.05;62.09
64066;BME280;50318;54.760;9.408;2023-01-24T21:38:11;103459.63;;;5.04;62.02
64066;BME280;50318;54.760;9.408;2023-01-24T21:40:38;103467.44;;;5.05;62.14
64066;BME280;50318;54.760;9.408;2023-01-24T21:43:04;103471.91;;;4.98;61.82
64066;BME280;50318;54.760;9.408;2023-01-24T21:45:39;103474.38;;;5.03;62.20
64066;BME280;50318;54.760;9.408;2023-01-24T21:48:11;103462.59;;;4.99;62.27
64066;BME280;50318;54.760;9.408;2023-01-24T21:50:41;103475.34;;;5.10;62.25
64066;BME280;50318;54.760;9.408;2023-01-24T21:53:27;103462.81;;;4.93;62.50
64066;BME280;50318;54.760;9.408;2023-01-24T21:55:54;103501.97;;;5.17;62.46
64066;BME280;50318;54.760;9.408;2023-01-24T21:58:26;103520.75;;;5.34;62.31
64066;BME280;50318;54.760;9.408;2023-01-24T22:00:56;103509.34;;;5.29;62.24
64066;BME280;50318;54.760;9.408;2023-01-24T22:03:22;103496.75;;;5.24;62.21
64066;BME280;50318;54.760;9.408;2023-01-24T22:05:50;103514.19;;;5.35;62.17
64066;BME280;50318;54.760;9.408;2023-01-24T22:08:17;103492.00;;;5.21;62.59
64066;BME280;50318;54.760;9.408;2023-01-24T22:10:48;103461.66;;;4.94;62.60
64066;BME280;50318;54.760;9.408;2023-01-24T22:13:17;103494.25;;;5.19;62.58
64066;BME280;50318;54.760;9.408;2023-01-24T22:15:43;103475.47;;;5.14;62.65
64066;BME280;50318;54.760;9.408;2023-01-24T22:18:13;103479.66;;;5.11;62.36
64066;BME280;50318;54.760;9.408;2023-01-24T22:20:42;103450.78;;;4.94;62.22
64066;BME280;50318;54.760;9.408;2023-01-24T22:29:15;103427.16;;;4.71;62.51
64066;BME280;50318;54.760;9.408;2023-01-24T22:31:45;103437.47;;;4.77;63.03
64066;BME280;50318;54.760;9.408;2023-01-24T22:34:21;103445.63;;;4.77;63.27
64066;BME280;50318;54.760;9.408;2023-01-24T22:37:32;103420.72;;;4.75;63.00
64066;BME280;50318;54.760;9.408;2023-01-24T22:40:00;103413.44;;;4.79;63.06
64066;BME280;50318;54.760;9.408;2023-01-24T22:42:26;103464.63;;;4.89;63.24
64066;BME280;50318;54.760;9.408;2023-01-24T22:44:56;103458.84;;;5.03;63.06
64066;BME280;50318;54.760;9.408;2023-01-24T22:47:26;103423.28;;;4.84;63.15
64066;BME280;50318;54.760;9.408;2023-01-24T22:49:58;103403.66;;;4.90;63.26
64066;BME280;50318;54.760;9.408;2023-01-24T22:52:33;103434.91;;;4.97;63.00
64066;BME280;50318;54.760;9.408;2023-01-24T22:55:05;103385.56;;;4.82;62.61
64066;BME280;50318;54.760;9.408;2023-01-24T22:57:35;103376.88;;;4.65;63.22
64066;BME280;50318;54.760;9.408;2023-01-24T23:00:17;103362.25;;;4.69;63.23
64066;BME280;50318;54.760;9.408;2023-01-24T23:02:54;103397.53;;;4.93;63.46
64066;BME280;50318;54.760;9.408;2023-01-24T23:05:26;103365.38;;;4.83;62.93
64066;BME280;50318;54.760;9.408;2023-01-24T23:07:55;103377.78;;;4.97;63.40
64066;BME280;50318;54.760;9.408;2023-01-24T23:10:29;103384.16;;;5.01;63.00
64066;BME280;50318;54.760;9.408;2023-01-24T23:13:13;103352.06;;;4.94;63.08
64066;BME280;50318;54.760;9.408;2023-01-24T23:15:45;103351.88;;;4.87;63.25
64066;BME280;50318;54.760;9.408;2023-01-24T23:18:37;103330.28;;;4.78;63.69
64066;BME280;50318;54.760;9.408;2023-01-24T23:21:04;103345.19;;;4.84;63.15
64066;BME280;50318;54.760;9.408;2023-01-24T23:23:34;103340.00;;;4.79;63.44
64066;BME280;50318;54.760;9.408;2023-01-24T23:26:08;103326.19;;;4.72;63.40
64066;BME280;50318;54.760;9.408;2023-01-24T23:28:55;103353.09;;;4.89;63.59
64066;BME280;50318;54.760;9.408;2023-01-24T23:31:31;103336.84;;;4.77;63.40
64066;BME280;50318;54.760;9.408;2023-01-24T23:34:12;103316.97;;;4.61;63.03
64066;BME280;50318;54.760;9.408;2023-01-24T23:37:00;103320.31;;;4.70;63.36
64066;BME280;50318;54.760;9.408;2023-01-24T23:39:31;103322.50;;;4.65;63.28
64066;BME280;50318;54.760;9.408;2023-01-24T23:42:15;103319.22;;;4.59;63.77
64066;BME280;50318;54.760;9.408;2023-01-24T23:44:48;103321.91;;;4.71;63.59
64066;BME280;50318;54.760;9.408;2023-01-24T23:47:17;103307.03;;;4.53;63.52
64066;BME280;50318;54.760;9.408;2023-01-24T23:49:44;103313.97;;;4.78;63.71
64066;BME280;50318;54.760;9.408;2023-01-24T23:52:13;103303.81;;;4.63;63.91
